createdAt,value
2017-03-01T00:00:02.496Z,96
2017-03-01T00:01:04.994Z,95.9
2017-03-01T00:02:07.947Z,96
2017-03-01T00:03:11.233Z,96
2017-03-01T00:04:13.175Z,96
2017-03-01T00:05:15.657Z,96
2017-03-01T00:06:18.106Z,96
2017-03-01T00:07:20.577Z,96
2017-03-01T00:08:23.831Z,95.9
2017-03-01T00:09:25.781Z,96
2017-03-01T00:10:28.565Z,96
2017-03-01T00:11:30.848Z,96
2017-03-01T00:12:33.826Z,96
2017-03-01T00:13:36.553Z,96
2017-03-01T00:14:39.027Z,96
2017-03-01T00:15:41.497Z,96
2017-03-01T00:16:43.943Z,96
2017-03-01T00:17:46.396Z,96
2017-03-01T00:18:49.600Z,96
2017-03-01T00:19:52.071Z,96
2017-03-01T00:21:56.951Z,96
2017-03-01T00:22:59.416Z,96
2017-03-01T00:24:02.147Z,96
2017-03-01T00:25:04.431Z,96
2017-03-01T00:26:07.389Z,96
2017-03-01T00:27:10.406Z,96
2017-03-01T00:29:15.015Z,96
2017-03-01T00:30:17.474Z,96
2017-03-01T00:31:19.943Z,96
2017-03-01T00:32:22.897Z,96
2017-03-01T00:33:25.346Z,96
2017-03-01T00:34:28.058Z,96
2017-03-01T00:35:30.340Z,96
2017-03-01T00:36:33.129Z,96
2017-03-01T00:37:35.592Z,96
2017-03-01T00:38:38.041Z,96
2017-03-01T00:39:41.085Z,96
2017-03-01T00:40:43.529Z,96
2017-03-01T00:41:45.989Z,96
2017-03-01T00:42:48.446Z,96
2017-03-01T00:43:50.896Z,96
2017-03-01T00:44:54.130Z,96
2017-03-01T00:45:55.973Z,96
2017-03-01T00:46:58.922Z,96
2017-03-01T00:48:01.375Z,96
2017-03-01T00:49:03.825Z,96
2017-03-01T00:50:06.872Z,96
2017-03-01T00:51:09.337Z,96
2017-03-01T00:52:11.801Z,96
2017-03-01T00:53:14.257Z,96
2017-03-01T00:54:16.703Z,96
2017-03-01T00:56:22.310Z,96
2017-03-01T00:57:24.757Z,96
2017-03-01T00:58:27.751Z,96
2017-03-01T00:59:30.059Z,96
2017-03-01T01:00:32.508Z,96
2017-03-01T01:01:35.210Z,96
2017-03-01T01:02:37.658Z,96
2017-03-01T01:03:40.104Z,96
2017-03-01T01:05:45.466Z,96
2017-03-01T01:06:48.167Z,95.9
2017-03-01T01:07:50.618Z,95.9
2017-03-01T01:08:53.084Z,95.9
2017-03-01T01:09:55.542Z,95.9
2017-03-01T01:10:58.001Z,95.9
2017-03-01T01:12:01.208Z,95.9
2017-03-01T01:13:03.406Z,95.9
2017-03-01T01:14:05.864Z,95.9
2017-03-01T01:15:08.660Z,95.9
2017-03-01T01:16:10.939Z,95.9
2017-03-01T01:17:13.978Z,95.9
2017-03-01T01:18:16.421Z,95.9
2017-03-01T01:19:18.712Z,95.9
2017-03-01T01:20:22.182Z,95.9
2017-03-01T01:21:24.127Z,95.9
2017-03-01T01:22:27.348Z,95.9
2017-03-01T01:23:29.142Z,95.9
2017-03-01T01:24:31.935Z,95.9
2017-03-01T01:25:34.215Z,95.9
2017-03-01T01:26:37.008Z,95.9
2017-03-01T01:27:39.713Z,95.9
2017-03-01T01:28:42.024Z,95.9
2017-03-01T01:29:44.820Z,95.9
2017-03-01T01:30:47.269Z,95.9
2017-03-01T01:31:50.053Z,95.9
2017-03-01T01:32:52.606Z,95.9
2017-03-01T01:33:55.052Z,95.9
2017-03-01T01:34:57.501Z,95.9
2017-03-01T01:35:59.950Z,95.9
2017-03-01T01:37:02.907Z,95.9
2017-03-01T01:38:05.641Z,95.9
2017-03-01T01:39:08.089Z,96
2017-03-01T01:40:10.537Z,96
2017-03-01T01:41:12.815Z,96
2017-03-01T01:42:15.766Z,96
2017-03-01T01:44:20.887Z,96
2017-03-01T01:45:23.187Z,96
2017-03-01T01:47:28.542Z,96
2017-03-01T01:48:30.821Z,96
2017-03-01T01:49:34.075Z,96
2017-03-01T01:50:36.033Z,96
2017-03-01T01:51:39.034Z,96
2017-03-01T01:52:41.484Z,96
2017-03-01T01:53:43.931Z,96
2017-03-01T01:54:46.657Z,96
2017-03-01T01:55:49.112Z,96
2017-03-01T01:56:51.560Z,96
2017-03-01T01:57:54.026Z,96
2017-03-01T01:58:56.973Z,96
2017-03-01T01:59:59.669Z,96
2017-03-01T02:01:01.950Z,96
2017-03-01T02:02:04.403Z,96
2017-03-01T02:03:07.362Z,96
2017-03-01T02:04:09.817Z,96
2017-03-01T02:05:12.520Z,96
2017-03-01T02:06:14.798Z,96
2017-03-01T02:07:17.242Z,96
2017-03-01T02:08:20.190Z,96
2017-03-01T02:09:22.635Z,96
2017-03-01T02:10:25.331Z,96
2017-03-01T02:11:27.783Z,96
2017-03-01T02:12:30.060Z,96
2017-03-01T02:13:33.013Z,96
2017-03-01T02:14:35.457Z,96
2017-03-01T02:15:38.154Z,96
2017-03-01T02:16:40.618Z,96
2017-03-01T02:17:43.067Z,96
2017-03-01T02:18:45.521Z,96
2017-03-01T02:19:48.469Z,96
2017-03-01T02:20:51.002Z,96
2017-03-01T02:21:53.470Z,96
2017-03-01T02:22:55.936Z,96
2017-03-01T02:23:58.909Z,96
2017-03-01T02:26:04.017Z,96
2017-03-01T02:27:06.479Z,96
2017-03-01T02:28:08.925Z,96
2017-03-01T02:30:14.519Z,96
2017-03-01T02:31:16.765Z,96
2017-03-01T02:32:19.223Z,96
2017-03-01T02:33:21.669Z,96
2017-03-01T02:34:24.638Z,96
2017-03-01T02:35:27.100Z,96
2017-03-01T02:36:29.822Z,96
2017-03-01T02:37:32.280Z,96
2017-03-01T02:38:34.737Z,96
2017-03-01T02:40:39.602Z,96
2017-03-01T02:42:45.045Z,96
2017-03-01T02:43:47.503Z,96
2017-03-01T02:44:49.966Z,96
2017-03-01T02:45:52.273Z,96
2017-03-01T02:46:55.220Z,96
2017-03-01T02:47:57.935Z,96
2017-03-01T02:49:00.384Z,96
2017-03-01T02:50:02.838Z,96
2017-03-01T02:51:05.622Z,96
2017-03-01T02:52:08.070Z,96
2017-03-01T02:53:10.781Z,96
2017-03-01T02:54:13.247Z,96
2017-03-01T02:55:15.716Z,96
2017-03-01T02:56:18.177Z,96
2017-03-01T02:57:21.134Z,96
2017-03-01T02:58:23.896Z,96
2017-03-01T02:59:25.855Z,96
2017-03-01T03:00:28.804Z,96
2017-03-01T03:01:31.298Z,96
2017-03-01T03:02:33.591Z,96
2017-03-01T03:03:36.791Z,96
2017-03-01T03:04:38.744Z,96
2017-03-01T03:05:41.699Z,96
2017-03-01T03:06:44.145Z,96
2017-03-01T03:07:46.594Z,96
2017-03-01T03:08:49.290Z,96
2017-03-01T03:09:51.743Z,96
2017-03-01T03:10:54.189Z,96
2017-03-01T03:11:57.190Z,96
2017-03-01T03:13:00.162Z,96
2017-03-01T03:14:02.220Z,96
2017-03-01T03:15:04.496Z,96
2017-03-01T03:16:07.441Z,96
2017-03-01T03:17:09.720Z,96
2017-03-01T03:18:12.006Z,96
2017-03-01T03:19:15.256Z,96
2017-03-01T03:20:17.705Z,96
2017-03-01T03:21:20.148Z,96
2017-03-01T03:22:22.606Z,96
2017-03-01T03:23:25.063Z,96
2017-03-01T03:25:30.721Z,96
2017-03-01T03:26:33.166Z,96
2017-03-01T03:27:35.627Z,96
2017-03-01T03:28:38.076Z,96
2017-03-01T03:29:40.522Z,96
2017-03-01T03:31:46.146Z,96
2017-03-01T03:32:47.930Z,96
2017-03-01T03:33:50.924Z,96
2017-03-01T03:34:53.447Z,96
2017-03-01T03:35:55.981Z,96
2017-03-01T03:36:58.787Z,96
2017-03-01T03:38:01.297Z,96
2017-03-01T03:39:03.644Z,96
2017-03-01T03:40:06.159Z,96
2017-03-01T03:41:09.712Z,96
2017-03-01T03:42:12.025Z,96
2017-03-01T03:43:14.028Z,96
2017-03-01T03:44:16.539Z,96
2017-03-01T03:45:19.096Z,96
2017-03-01T03:46:21.604Z,96
2017-03-01T03:47:24.444Z,96
2017-03-01T03:48:26.712Z,96
2017-03-01T03:49:29.247Z,96
2017-03-01T03:50:31.925Z,96
2017-03-01T03:51:34.444Z,96
2017-03-01T03:52:37.292Z,96
2017-03-01T03:53:39.791Z,96
2017-03-01T03:54:42.292Z,96
2017-03-01T03:55:44.857Z,96
2017-03-01T03:56:47.360Z,96
2017-03-01T03:57:50.129Z,96
2017-03-01T03:58:52.693Z,96
2017-03-01T03:59:55.196Z,96
2017-03-01T04:00:57.711Z,96
2017-03-01T04:02:00.549Z,96
2017-03-01T04:03:03.328Z,96
2017-03-01T04:04:05.335Z,96
2017-03-01T04:05:07.689Z,96
2017-03-01T04:06:10.777Z,96
2017-03-01T04:07:13.293Z,96
2017-03-01T04:08:16.104Z,96
2017-03-01T04:09:18.107Z,96
2017-03-01T04:10:20.615Z,96
2017-03-01T04:11:23.624Z,96
2017-03-01T04:12:26.128Z,96
2017-03-01T04:13:28.988Z,96
2017-03-01T04:14:30.995Z,96
2017-03-01T04:15:33.495Z,96
2017-03-01T04:16:35.992Z,96
2017-03-01T04:17:39.017Z,96
2017-03-01T04:18:41.830Z,96
2017-03-01T04:19:43.855Z,96
2017-03-01T04:20:46.371Z,96.1
2017-03-01T04:21:48.887Z,96.1
2017-03-01T04:22:51.394Z,96.1
2017-03-01T04:23:54.651Z,96
2017-03-01T04:24:56.651Z,96
2017-03-01T04:25:59.156Z,96
2017-03-01T04:27:01.728Z,96
2017-03-01T04:28:04.248Z,96
2017-03-01T04:29:07.510Z,96
2017-03-01T04:30:09.520Z,96
2017-03-01T04:31:12.028Z,96
2017-03-01T04:32:14.557Z,96
2017-03-01T04:33:17.061Z,96
2017-03-01T04:34:20.386Z,96
2017-03-01T04:35:22.236Z,96
2017-03-01T04:36:24.749Z,96
2017-03-01T04:37:27.758Z,96
2017-03-01T04:38:30.103Z,96
2017-03-01T04:39:32.928Z,96
2017-03-01T04:40:35.439Z,96
2017-03-01T04:41:37.952Z,96
2017-03-01T04:42:40.285Z,96
2017-03-01T04:43:43.665Z,96
2017-03-01T04:44:45.930Z,96
2017-03-01T04:45:47.941Z,96
2017-03-01T04:46:50.828Z,96
2017-03-01T04:47:53.355Z,96
2017-03-01T04:48:55.856Z,96.1
2017-03-01T04:49:58.614Z,96.1
2017-03-01T04:51:00.613Z,96.1
2017-03-01T04:52:03.615Z,96.1
2017-03-01T04:53:06.119Z,96.1
2017-03-01T04:54:08.626Z,96.1
2017-03-01T04:55:11.430Z,96.1
2017-03-01T04:56:13.441Z,96.1
2017-03-01T04:57:16.477Z,96.1
2017-03-01T04:58:18.822Z,96.1
2017-03-01T05:00:24.039Z,96.1
2017-03-01T05:01:26.540Z,96.1
2017-03-01T05:02:29.059Z,96.1
2017-03-01T05:03:31.577Z,96.1
2017-03-01T05:04:33.913Z,96.1
2017-03-01T05:05:37.183Z,96.1
2017-03-01T05:06:39.184Z,96.1
2017-03-01T05:07:42.039Z,96.1
2017-03-01T05:08:44.593Z,96.1
2017-03-01T05:09:47.113Z,96.1
2017-03-01T05:10:49.866Z,96.1
2017-03-01T05:11:51.867Z,96.1
2017-03-01T05:12:54.430Z,96.1
2017-03-01T05:13:57.435Z,96.1
2017-03-01T05:14:59.940Z,96.1
2017-03-01T05:16:02.762Z,96.1
2017-03-01T05:17:04.762Z,96.1
2017-03-01T05:18:07.278Z,96.1
2017-03-01T05:19:09.778Z,96.1
2017-03-01T05:20:12.619Z,96.1
2017-03-01T05:21:15.431Z,96.1
2017-03-01T05:22:17.932Z,96.1
2017-03-01T05:23:20.454Z,96.1
2017-03-01T05:24:22.966Z,96.1
2017-03-01T05:25:25.323Z,96.1
2017-03-01T05:26:28.134Z,96.1
2017-03-01T05:27:30.643Z,96.1
2017-03-01T05:28:33.149Z,96.1
2017-03-01T05:29:35.484Z,96.1
2017-03-01T05:30:37.824Z,96.1
2017-03-01T05:31:41.133Z,96.1
2017-03-01T05:32:43.152Z,96.1
2017-03-01T05:33:45.659Z,96.1
2017-03-01T05:34:48.511Z,96.1
2017-03-01T05:35:51.055Z,96.1
2017-03-01T05:36:53.872Z,96.1
2017-03-01T05:37:56.232Z,96.1
2017-03-01T05:38:58.751Z,96.1
2017-03-01T05:40:01.263Z,96.1
2017-03-01T05:41:03.778Z,96.1
2017-03-01T05:42:06.585Z,96.1
2017-03-01T05:43:08.934Z,96.1
2017-03-01T05:44:11.444Z,96.1
2017-03-01T05:45:13.967Z,96.1
2017-03-01T05:46:16.478Z,96.1
2017-03-01T05:47:19.233Z,96.1
2017-03-01T05:49:24.156Z,96.1
2017-03-01T05:50:26.994Z,96.1
2017-03-01T05:51:29.504Z,96.1
2017-03-01T05:52:32.260Z,96.1
2017-03-01T05:53:34.611Z,96.1
2017-03-01T05:54:37.121Z,96.1
2017-03-01T05:55:40.168Z,96.1
2017-03-01T05:56:42.167Z,96.1
2017-03-01T05:57:44.924Z,96.1
2017-03-01T05:58:47.427Z,96.1
2017-03-01T05:59:49.926Z,96.1
2017-03-01T06:00:52.431Z,96
2017-03-01T06:01:54.945Z,96
2017-03-01T06:02:57.787Z,96
2017-03-01T06:03:59.853Z,96
2017-03-01T06:05:02.853Z,96
2017-03-01T06:06:05.403Z,96
2017-03-01T06:07:07.903Z,96
2017-03-01T06:08:10.666Z,96
2017-03-01T06:09:12.674Z,96
2017-03-01T06:10:15.703Z,96
2017-03-01T06:11:18.206Z,96
2017-03-01T06:12:20.725Z,96
2017-03-01T06:13:23.328Z,96
2017-03-01T06:14:25.858Z,96
2017-03-01T06:15:28.369Z,96
2017-03-01T06:16:30.880Z,96
2017-03-01T06:17:33.407Z,96
2017-03-01T06:18:36.219Z,96
2017-03-01T06:19:38.727Z,96
2017-03-01T06:20:41.234Z,96
2017-03-01T06:21:43.749Z,96
2017-03-01T06:22:46.267Z,96
2017-03-01T06:24:51.469Z,96
2017-03-01T06:25:53.970Z,96
2017-03-01T06:26:56.489Z,96
2017-03-01T06:27:58.836Z,96
2017-03-01T06:29:01.344Z,96
2017-03-01T06:30:04.605Z,96
2017-03-01T06:31:06.615Z,96
2017-03-01T06:32:09.141Z,96
2017-03-01T06:33:11.983Z,96
2017-03-01T06:34:14.526Z,96
2017-03-01T06:35:17.325Z,96
2017-03-01T06:36:19.159Z,96
2017-03-01T06:38:24.581Z,96
2017-03-01T06:39:27.967Z,96
2017-03-01T06:40:30.227Z,96
2017-03-01T06:41:32.226Z,96
2017-03-01T06:42:34.737Z,96
2017-03-01T06:43:37.800Z,96
2017-03-01T06:44:39.831Z,96
2017-03-01T06:45:42.597Z,96
2017-03-01T06:46:45.103Z,96
2017-03-01T06:47:47.628Z,96
2017-03-01T06:48:50.208Z,96
2017-03-01T06:49:52.717Z,96
2017-03-01T06:50:55.480Z,96
2017-03-01T06:51:57.994Z,96
2017-03-01T06:53:00.504Z,96
2017-03-01T06:54:03.078Z,96
2017-03-01T06:55:05.591Z,96
2017-03-01T06:56:08.363Z,96
2017-03-01T06:57:10.897Z,96
2017-03-01T06:58:13.253Z,96
2017-03-01T06:59:15.765Z,96
2017-03-01T07:00:18.277Z,96
2017-03-01T07:01:21.094Z,96
2017-03-01T07:02:23.607Z,96
2017-03-01T07:03:25.942Z,96
2017-03-01T07:04:28.958Z,96
2017-03-01T07:05:31.148Z,96
2017-03-01T07:06:33.900Z,96
2017-03-01T07:07:36.406Z,96
2017-03-01T07:08:38.917Z,96
2017-03-01T07:09:41.460Z,95.9
2017-03-01T07:10:43.962Z,96
2017-03-01T07:11:46.733Z,96
2017-03-01T07:12:49.234Z,95.9
2017-03-01T07:13:51.750Z,95.9
2017-03-01T07:14:54.254Z,95.9
2017-03-01T07:15:56.806Z,96
2017-03-01T07:16:59.661Z,95.9
2017-03-01T07:18:02.161Z,96
2017-03-01T07:20:07.082Z,95.9
2017-03-01T07:21:09.927Z,95.9
2017-03-01T07:22:12.682Z,95.9
2017-03-01T07:23:14.693Z,95.9
2017-03-01T07:24:17.757Z,95.9
2017-03-01T07:25:19.770Z,95.9
2017-03-01T07:26:22.607Z,95.9
2017-03-01T07:28:28.021Z,95.9
2017-03-01T07:29:30.190Z,95.9
2017-03-01T07:30:32.707Z,95.9
2017-03-01T07:31:35.562Z,95.9
2017-03-01T07:32:38.072Z,95.9
2017-03-01T07:33:40.674Z,95.9
2017-03-01T07:34:43.199Z,95.9
2017-03-01T07:35:45.708Z,95.9
2017-03-01T07:36:48.254Z,95.9
2017-03-01T07:37:50.783Z,95.9
2017-03-01T07:38:53.594Z,95.9
2017-03-01T07:39:56.142Z,95.9
2017-03-01T07:40:58.667Z,95.9
2017-03-01T07:42:01.167Z,95.9
2017-03-01T07:43:03.502Z,95.9
2017-03-01T07:44:06.654Z,95.9
2017-03-01T07:45:09.005Z,95.9
2017-03-01T07:46:11.510Z,95.9
2017-03-01T07:47:14.015Z,95.9
2017-03-01T07:48:16.526Z,95.9
2017-03-01T07:49:19.138Z,95.9
2017-03-01T07:50:21.646Z,95.9
2017-03-01T07:51:23.991Z,95.9
2017-03-01T07:52:26.490Z,95.9
2017-03-01T07:53:29.500Z,95.9
2017-03-01T07:54:32.110Z,95.9
2017-03-01T07:55:34.996Z,96
2017-03-01T07:56:37.027Z,96
2017-03-01T07:57:39.527Z,96
2017-03-01T07:58:42.065Z,96
2017-03-01T07:59:44.870Z,96
2017-03-01T08:00:47.267Z,95.9
2017-03-01T08:01:49.770Z,95.9
2017-03-01T08:02:20.113Z,95.9
2017-03-01T08:02:52.258Z,95.9
2017-03-01T08:03:55.111Z,95.9
2017-03-01T08:04:57.859Z,95.9
2017-03-01T08:06:00.206Z,95.9
2017-03-01T08:07:02.774Z,95.9
2017-03-01T08:08:05.280Z,95.9
2017-03-01T08:09:07.814Z,95.9
2017-03-01T08:10:10.572Z,95.9
2017-03-01T08:11:13.080Z,95.9
2017-03-01T08:12:15.428Z,95.9
2017-03-01T08:13:17.951Z,95.9
2017-03-01T08:14:20.974Z,95.9
2017-03-01T08:15:23.780Z,95.9
2017-03-01T08:16:25.775Z,95.9
2017-03-01T08:17:28.303Z,95.9
2017-03-01T08:19:33.716Z,95.9
2017-03-01T08:20:36.490Z,95.9
2017-03-01T08:21:39.541Z,95.8
2017-03-01T08:22:41.542Z,95.9
2017-03-01T08:23:43.884Z,95.9
2017-03-01T08:24:46.384Z,95.8
2017-03-01T08:25:48.977Z,95.8
2017-03-01T08:26:51.824Z,95.8
2017-03-01T08:27:54.334Z,95.8
2017-03-01T08:28:56.856Z,95.8
2017-03-01T08:29:59.360Z,95.8
2017-03-01T08:31:02.117Z,95.8
2017-03-01T08:32:04.636Z,95.8
2017-03-01T08:33:07.140Z,95.8
2017-03-01T08:34:09.502Z,95.8
2017-03-01T08:35:12.020Z,95.8
2017-03-01T08:36:15.374Z,95.8
2017-03-01T08:37:17.380Z,95.7
2017-03-01T08:38:19.925Z,95.7
2017-03-01T08:39:22.432Z,95.6
2017-03-01T08:40:24.971Z,95.6
2017-03-01T08:41:28.237Z,95.6
2017-03-01T08:43:33.149Z,95.5
2017-03-01T08:44:35.651Z,95.5
2017-03-01T08:45:38.167Z,95.5
2017-03-01T08:46:40.927Z,95.4
2017-03-01T08:47:43.436Z,95.4
2017-03-01T08:48:45.953Z,95.4
2017-03-01T08:49:48.457Z,95.3
2017-03-01T08:50:50.790Z,95.3
2017-03-01T08:51:54.068Z,95.2
2017-03-01T08:52:56.409Z,95.2
2017-03-01T08:53:59.467Z,95.2
2017-03-01T08:55:01.309Z,95.1
2017-03-01T08:56:03.855Z,95.1
2017-03-01T08:57:06.659Z,95.1
2017-03-01T08:58:09.172Z,95
2017-03-01T08:59:11.693Z,95
2017-03-01T09:00:14.194Z,95
2017-03-01T09:01:16.734Z,94.9
2017-03-01T09:02:19.900Z,94.9
2017-03-01T09:03:22.476Z,94.9
2017-03-01T09:04:24.813Z,94.9
2017-03-01T09:05:27.330Z,94.8
2017-03-01T09:06:29.831Z,94.8
2017-03-01T09:07:32.956Z,94.8
2017-03-01T09:08:34.958Z,94.8
2017-03-01T09:09:37.500Z,94.8
2017-03-01T09:10:40.004Z,94.7
2017-03-01T09:11:43.018Z,94.7
2017-03-01T09:12:45.614Z,94.7
2017-03-01T09:13:48.124Z,94.7
2017-03-01T09:15:52.880Z,94.7
2017-03-01T09:16:55.927Z,94.7
2017-03-01T09:17:58.747Z,94.6
2017-03-01T09:19:00.751Z,94.6
2017-03-01T09:20:03.597Z,94.6
2017-03-01T09:21:06.123Z,94.5
2017-03-01T09:22:08.474Z,94.5
2017-03-01T09:23:11.782Z,94.5
2017-03-01T09:24:14.134Z,94.5
2017-03-01T09:25:16.644Z,94.4
2017-03-01T09:26:19.159Z,94.4
2017-03-01T09:27:21.693Z,94.4
2017-03-01T09:28:24.509Z,94.4
2017-03-01T09:29:26.854Z,94.3
2017-03-01T09:31:32.096Z,94.3
2017-03-01T09:32:34.434Z,94.3
2017-03-01T09:33:37.760Z,94.3
2017-03-01T09:34:39.756Z,94.2
2017-03-01T09:35:42.256Z,94.2
2017-03-01T09:36:45.284Z,94.2
2017-03-01T09:37:47.794Z,94.2
2017-03-01T09:38:50.569Z,94.2
2017-03-01T09:39:53.070Z,94.1
2017-03-01T09:40:55.569Z,94.1
2017-03-01T09:41:58.075Z,94
2017-03-01T09:43:00.589Z,94
2017-03-01T09:44:03.350Z,93.9
2017-03-01T09:45:05.903Z,93.9
2017-03-01T09:46:08.258Z,93.8
2017-03-01T09:47:10.814Z,93.7
2017-03-01T09:48:13.831Z,93.7
2017-03-01T09:49:16.585Z,93.6
2017-03-01T09:50:18.604Z,93.5
2017-03-01T09:51:21.525Z,93.4
2017-03-01T09:52:24.035Z,93.4
2017-03-01T09:53:26.881Z,93.3
2017-03-01T09:54:29.684Z,93.3
2017-03-01T09:55:31.696Z,93.3
2017-03-01T09:56:34.704Z,93.3
2017-03-01T09:57:37.042Z,93.2
2017-03-01T09:58:39.392Z,93.2
2017-03-01T09:59:42.716Z,93.2
2017-03-01T10:00:44.739Z,93.2
2017-03-01T10:01:47.585Z,93.2
2017-03-01T10:02:50.087Z,93.2
2017-03-01T10:03:52.590Z,93.2
2017-03-01T10:04:55.391Z,93.2
2017-03-01T10:05:57.736Z,93.2
2017-03-01T10:07:00.616Z,93.3
2017-03-01T10:08:03.136Z,93.3
2017-03-01T10:09:05.643Z,93.3
2017-03-01T10:10:08.461Z,93.3
2017-03-01T10:11:10.974Z,93.4
2017-03-01T10:12:13.484Z,93.4
2017-03-01T10:13:15.991Z,93.4
2017-03-01T10:14:18.506Z,93.4
2017-03-01T10:15:21.832Z,93.4
2017-03-01T10:16:23.842Z,93.4
2017-03-01T10:17:26.378Z,93.4
2017-03-01T10:18:29.217Z,93.4
2017-03-01T10:20:34.380Z,93.4
2017-03-01T10:21:36.892Z,93.4
2017-03-01T10:22:39.398Z,93.4
2017-03-01T10:23:42.239Z,93.4
2017-03-01T10:24:44.750Z,93.4
2017-03-01T10:25:47.516Z,93.4
2017-03-01T10:26:50.021Z,93.4
2017-03-01T10:28:55.447Z,93.3
2017-03-01T10:29:57.974Z,93.3
2017-03-01T10:31:00.740Z,93.3
2017-03-01T10:33:05.662Z,93.4
2017-03-01T10:34:08.182Z,93.3
2017-03-01T10:35:10.723Z,93.4
2017-03-01T10:36:13.543Z,93.3
2017-03-01T10:37:15.898Z,93.3
2017-03-01T10:38:18.415Z,93.3
2017-03-01T10:39:21.434Z,93.3
2017-03-01T10:40:23.797Z,93.3
2017-03-01T10:41:26.610Z,93.3
2017-03-01T10:42:28.959Z,93.3
2017-03-01T10:43:31.472Z,93.3
2017-03-01T10:44:34.483Z,93.3
2017-03-01T10:45:36.994Z,93.3
2017-03-01T10:46:39.588Z,93.3
2017-03-01T10:47:42.155Z,93.3
2017-03-01T10:48:44.669Z,93.3
2017-03-01T10:49:47.172Z,93.3
2017-03-01T10:50:50.181Z,93.3
2017-03-01T10:51:52.832Z,93.3
2017-03-01T10:52:55.337Z,93.3
2017-03-01T10:53:57.894Z,93.3
2017-03-01T10:55:00.240Z,93.3
2017-03-01T10:56:03.304Z,93.3
2017-03-01T10:57:06.116Z,93.3
2017-03-01T10:58:08.127Z,93.3
2017-03-01T10:59:10.630Z,93.3
2017-03-01T11:00:13.477Z,93.3
2017-03-01T11:01:16.012Z,93.3
2017-03-01T11:02:18.816Z,93.3
2017-03-01T11:03:21.314Z,93.3
2017-03-01T11:04:23.814Z,93.2
2017-03-01T11:05:26.329Z,93.3
2017-03-01T11:06:28.831Z,93.3
2017-03-01T11:07:32.148Z,93.3
2017-03-01T11:08:34.166Z,93.3
2017-03-01T11:10:39.413Z,93.3
2017-03-01T11:11:41.922Z,93.3
2017-03-01T11:12:45.185Z,93.4
2017-03-01T11:13:47.194Z,93.4
2017-03-01T11:14:49.696Z,93.4
2017-03-01T11:15:52.710Z,93.5
2017-03-01T11:16:55.053Z,93.5
2017-03-01T11:17:57.820Z,93.5
2017-03-01T11:19:00.329Z,93.6
2017-03-01T11:20:02.840Z,93.6
2017-03-01T11:21:06.062Z,93.6
2017-03-01T11:22:08.400Z,93.7
2017-03-01T11:23:11.750Z,93.7
2017-03-01T11:24:13.250Z,93.7
2017-03-01T11:25:15.835Z,93.7
2017-03-01T11:26:18.850Z,93.7
2017-03-01T11:27:21.376Z,93.7
2017-03-01T11:29:26.545Z,93.6
2017-03-01T11:30:29.057Z,93.6
2017-03-01T11:31:31.408Z,93.5
2017-03-01T11:32:34.416Z,93.5
2017-03-01T11:33:36.945Z,93.4
2017-03-01T11:34:39.715Z,93.4
2017-03-01T11:35:42.215Z,93.4
2017-03-01T11:36:44.564Z,93.3
2017-03-01T11:37:47.082Z,93.3
2017-03-01T11:38:50.106Z,93.3
2017-03-01T11:39:52.920Z,93.2
2017-03-01T11:40:54.937Z,93.2
2017-03-01T11:41:57.937Z,93.2
2017-03-01T11:43:00.279Z,93.2
2017-03-01T11:44:02.794Z,93.2
2017-03-01T11:45:06.104Z,93.2
2017-03-01T11:46:08.106Z,93.2
2017-03-01T11:47:11.160Z,93.2
2017-03-01T11:48:13.184Z,93.2
2017-03-01T11:49:15.743Z,93.1
2017-03-01T11:51:21.410Z,93.1
2017-03-01T11:52:23.752Z,93
2017-03-01T11:53:26.262Z,93
2017-03-01T11:54:29.103Z,93
2017-03-01T11:55:31.612Z,93
2017-03-01T11:56:34.273Z,92.9
2017-03-01T11:57:36.789Z,92.9
2017-03-01T11:58:39.637Z,92.9
2017-03-01T11:59:42.162Z,92.9
2017-03-01T12:00:44.703Z,92.9
2017-03-01T12:01:47.535Z,92.8
2017-03-01T12:02:50.038Z,92.8
2017-03-01T12:03:52.391Z,92.8
2017-03-01T12:04:55.254Z,92.8
2017-03-01T12:05:57.786Z,92.8
2017-03-01T12:07:00.594Z,92.8
2017-03-01T12:08:02.926Z,92.8
2017-03-01T12:09:05.435Z,92.8
2017-03-01T12:10:08.454Z,92.8
2017-03-01T12:11:10.954Z,92.9
2017-03-01T12:12:13.544Z,92.9
2017-03-01T12:13:16.077Z,92.9
2017-03-01T12:14:18.911Z,93
2017-03-01T12:15:21.415Z,93
2017-03-01T12:16:23.935Z,93.1
2017-03-01T12:17:26.689Z,93.2
2017-03-01T12:18:29.214Z,93.2
2017-03-01T12:19:31.714Z,93.3
2017-03-01T12:20:34.555Z,93.3
2017-03-01T12:21:36.923Z,93.4
2017-03-01T12:22:39.574Z,93.4
2017-03-01T12:23:42.084Z,93.4
2017-03-01T12:24:44.427Z,93.4
2017-03-01T12:25:47.444Z,93.4
2017-03-01T12:26:49.963Z,93.4
2017-03-01T12:27:52.762Z,93.4
2017-03-01T12:28:55.287Z,93.4
2017-03-01T12:29:57.637Z,93.4
2017-03-01T12:31:00.639Z,93.3
2017-03-01T12:32:02.974Z,93.3
2017-03-01T12:33:05.732Z,93.2
2017-03-01T12:34:08.068Z,93.2
2017-03-01T12:35:10.906Z,93.2
2017-03-01T12:36:13.407Z,93.1
2017-03-01T12:37:16.254Z,93.1
2017-03-01T12:38:19.008Z,93.1
2017-03-01T12:39:21.542Z,93.1
2017-03-01T12:40:24.054Z,93.1
2017-03-01T12:41:26.616Z,93.1
2017-03-01T12:42:29.126Z,93.1
2017-03-01T12:43:31.879Z,93.1
2017-03-01T12:44:34.217Z,93.1
2017-03-01T12:45:37.229Z,93.1
2017-03-01T12:46:39.563Z,93.1
2017-03-01T12:47:42.063Z,93.1
2017-03-01T12:48:45.367Z,93.1
2017-03-01T12:49:47.370Z,93.1
2017-03-01T12:50:50.385Z,93.1
2017-03-01T12:51:52.897Z,93.1
2017-03-01T12:52:55.401Z,93.1
2017-03-01T12:53:58.187Z,93.1
2017-03-01T12:55:00.699Z,93.1
2017-03-01T12:56:03.079Z,93.1
2017-03-01T12:57:06.092Z,93.1
2017-03-01T12:58:08.609Z,93.1
2017-03-01T12:59:11.415Z,93.1
2017-03-01T13:01:16.338Z,93.2
2017-03-01T13:02:18.862Z,93.3
2017-03-01T13:03:21.198Z,93.3
2017-03-01T13:04:24.507Z,93.4
2017-03-01T13:05:26.503Z,93.4
2017-03-01T13:06:29.366Z,93.5
2017-03-01T13:07:31.912Z,93.5
2017-03-01T13:08:34.432Z,93.5
2017-03-01T13:09:37.249Z,93.6
2017-03-01T13:10:39.822Z,93.6
2017-03-01T13:11:42.171Z,93.7
2017-03-01T13:13:47.612Z,93.8
2017-03-01T13:14:50.374Z,93.9
2017-03-01T13:15:52.872Z,94
2017-03-01T13:16:55.385Z,94
2017-03-01T13:17:57.886Z,94.1
2017-03-01T13:19:00.229Z,94.1
2017-03-01T13:20:03.543Z,94.2
2017-03-01T13:21:05.885Z,94.2
2017-03-01T13:22:08.075Z,94.2
2017-03-01T13:23:10.934Z,94.2
2017-03-01T13:24:13.448Z,94.2
2017-03-01T13:25:16.261Z,94.3
2017-03-01T13:26:18.435Z,94.3
2017-03-01T13:28:23.855Z,94.3
2017-03-01T13:29:26.712Z,94.3
2017-03-01T13:30:29.528Z,94.4
2017-03-01T13:31:32.046Z,94.4
2017-03-01T13:32:34.550Z,94.3
2017-03-01T13:33:36.881Z,94.4
2017-03-01T13:34:39.399Z,94.4
2017-03-01T13:35:42.665Z,94.4
2017-03-01T13:36:44.998Z,94.4
2017-03-01T13:37:47.343Z,94.4
2017-03-01T13:38:49.681Z,94.4
2017-03-01T13:39:52.709Z,94.4
2017-03-01T13:40:55.461Z,94.4
2017-03-01T13:41:57.971Z,94.4
2017-03-01T13:43:00.327Z,94.4
2017-03-01T13:44:02.842Z,94.4
2017-03-01T13:45:05.865Z,94.5
2017-03-01T13:46:08.719Z,94.5
2017-03-01T13:47:10.741Z,94.5
2017-03-01T13:48:13.261Z,94.5
2017-03-01T13:49:16.129Z,94.5
2017-03-01T13:50:18.464Z,94.5
2017-03-01T13:51:21.618Z,94.5
2017-03-01T13:52:23.612Z,94.5
2017-03-01T13:53:26.620Z,94.5
2017-03-01T13:55:31.542Z,94.6
2017-03-01T13:56:34.351Z,94.6
2017-03-01T13:57:36.851Z,94.6
2017-03-01T13:58:39.699Z,94.6
2017-03-01T13:59:42.760Z,94.6
2017-03-01T14:00:44.824Z,94.6
2017-03-01T14:01:47.640Z,94.7
2017-03-01T14:02:49.823Z,94.7
2017-03-01T14:03:52.678Z,94.6
2017-03-01T14:04:55.030Z,94.7
2017-03-01T14:05:57.546Z,94.7
2017-03-01T14:07:00.373Z,94.7
2017-03-01T14:08:02.876Z,94.7
2017-03-01T14:09:05.406Z,94.7
2017-03-01T14:10:07.921Z,94.7
2017-03-01T14:11:11.465Z,94.7
2017-03-01T14:12:13.615Z,94.7
2017-03-01T14:13:15.633Z,94.7
2017-03-01T14:14:18.476Z,94.7
2017-03-01T14:15:20.988Z,94.7
2017-03-01T14:16:23.825Z,94.7
2017-03-01T14:17:26.594Z,94.7
2017-03-01T14:18:29.115Z,94.7
2017-03-01T14:19:31.647Z,94.7
2017-03-01T14:20:34.146Z,94.7
2017-03-01T14:21:36.475Z,94.7
2017-03-01T14:22:39.804Z,94.7
2017-03-01T14:23:41.818Z,94.7
2017-03-01T14:24:44.321Z,94.8
2017-03-01T14:25:47.169Z,94.8
2017-03-01T14:26:49.515Z,94.8
2017-03-01T14:27:52.650Z,94.8
2017-03-01T14:28:54.663Z,94.7
2017-03-01T14:29:57.689Z,94.7
2017-03-01T14:31:00.198Z,94.7
2017-03-01T14:32:02.552Z,94.7
2017-03-01T14:33:05.366Z,94.7
2017-03-01T14:34:07.870Z,94.7
2017-03-01T14:35:10.377Z,94.7
2017-03-01T14:36:12.731Z,94.7
2017-03-01T14:37:15.749Z,94.7
2017-03-01T14:38:18.541Z,94.7
2017-03-01T14:39:21.049Z,94.7
2017-03-01T14:40:23.220Z,94.7
2017-03-01T14:41:26.232Z,94.7
2017-03-01T14:42:28.588Z,94.7
2017-03-01T14:43:31.570Z,94.7
2017-03-01T14:44:34.083Z,94.6
2017-03-01T14:45:36.616Z,94.6
2017-03-01T14:46:38.958Z,94.6